createdAt,value
2018-07-02T00:00:27.550Z,991.40
2018-07-02T00:01:27.705Z,991.36
2018-07-02T00:02:27.857Z,991.37
2018-07-02T00:03:28.007Z,991.34
2018-07-02T00:04:28.157Z,991.35
2018-07-02T00:05:28.312Z,991.33
2018-07-02T00:06:28.464Z,991.29
2018-07-02T00:07:28.617Z,991.27
2018-07-02T00:08:28.769Z,991.23
2018-07-02T00:09:28.922Z,991.24
2018-07-02T00:10:29.073Z,991.25
2018-07-02T00:11:29.259Z,991.22
2018-07-02T00:12:29.410Z,991.22
2018-07-02T00:13:29.560Z,991.23
2018-07-02T00:14:29.715Z,991.23
2018-07-02T00:15:29.868Z,991.24
2018-07-02T00:16:30.018Z,991.27
2018-07-02T00:17:30.172Z,991.28
2018-07-02T00:18:30.323Z,991.28
2018-07-02T00:19:30.476Z,991.31
2018-07-02T00:20:30.626Z,991.31
2018-07-02T00:21:30.777Z,991.26
2018-07-02T00:22:30.928Z,991.29
2018-07-02T00:23:31.078Z,991.22
2018-07-02T00:24:31.232Z,991.22
2018-07-02T00:25:31.384Z,991.28
2018-07-02T00:26:31.536Z,991.26
2018-07-02T00:27:31.689Z,991.24
2018-07-02T00:28:31.842Z,991.26
2018-07-02T00:29:31.993Z,991.28
2018-07-02T00:30:32.146Z,991.26
2018-07-02T00:31:32.295Z,991.26
2018-07-02T00:32:32.447Z,991.26
2018-07-02T00:33:32.601Z,991.24
2018-07-02T00:34:32.757Z,991.24
2018-07-02T00:35:32.909Z,991.24
2018-07-02T00:36:33.060Z,991.23
2018-07-02T00:37:33.214Z,991.21
2018-07-02T00:38:33.365Z,991.20
2018-07-02T00:39:33.518Z,991.16
2018-07-02T00:40:33.669Z,991.19
2018-07-02T00:41:33.822Z,991.19
2018-07-02T00:42:34.000Z,991.19
2018-07-02T00:43:34.122Z,991.20
2018-07-02T00:44:34.273Z,991.18
2018-07-02T00:45:34.427Z,991.16
2018-07-02T00:46:34.579Z,991.18
2018-07-02T00:47:34.730Z,991.20
2018-07-02T00:48:34.885Z,991.20
2018-07-02T00:49:35.032Z,991.17
2018-07-02T00:50:35.184Z,991.20
2018-07-02T00:51:35.336Z,991.19
2018-07-02T00:52:35.488Z,991.17
2018-07-02T00:53:35.640Z,991.17
2018-07-02T00:54:35.791Z,991.15
2018-07-02T00:55:35.942Z,991.14
2018-07-02T00:56:36.093Z,991.11
2018-07-02T00:57:36.243Z,991.09
2018-07-02T00:58:36.434Z,991.09
2018-07-02T00:59:36.552Z,991.13
2018-07-02T01:00:36.703Z,991.12
2018-07-02T01:01:36.856Z,991.13
2018-07-02T01:02:37.008Z,991.13
2018-07-02T01:03:37.167Z,991.11
2018-07-02T01:04:37.298Z,991.13
2018-07-02T01:05:37.449Z,991.11
2018-07-02T01:06:37.599Z,991.11
2018-07-02T01:07:37.753Z,991.09
2018-07-02T01:08:37.905Z,991.11
2018-07-02T01:09:38.056Z,991.06
2018-07-02T01:10:38.210Z,991.09
2018-07-02T01:11:38.364Z,991.12
2018-07-02T01:12:38.511Z,991.12
2018-07-02T01:13:38.663Z,991.10
2018-07-02T01:14:38.813Z,991.13
2018-07-02T01:15:38.965Z,991.09
2018-07-02T01:16:39.120Z,991.11
2018-07-02T01:17:39.268Z,991.07
2018-07-02T01:18:39.419Z,991.08
2018-07-02T01:19:39.569Z,991.08
2018-07-02T01:20:39.730Z,991.05
2018-07-02T01:21:39.879Z,991.01
2018-07-02T01:22:40.032Z,991.02
2018-07-02T01:23:40.182Z,990.99
2018-07-02T01:24:40.334Z,991.03
2018-07-02T01:25:40.486Z,991.00
2018-07-02T01:26:40.637Z,991.00
2018-07-02T01:27:40.789Z,990.97
2018-07-02T01:28:40.940Z,991.01
2018-07-02T01:29:41.092Z,990.95
2018-07-02T01:30:41.239Z,990.97
2018-07-02T01:31:41.394Z,990.96
2018-07-02T01:32:41.545Z,990.93
2018-07-02T01:33:41.698Z,990.96
2018-07-02T01:34:41.851Z,990.95
2018-07-02T01:35:42.001Z,990.96
2018-07-02T01:36:42.153Z,990.96
2018-07-02T01:37:42.301Z,990.94
2018-07-02T01:38:42.455Z,990.92
2018-07-02T01:39:42.606Z,990.89
2018-07-02T01:40:42.757Z,990.88
2018-07-02T01:41:42.909Z,990.86
2018-07-02T01:42:43.060Z,990.87
2018-07-02T01:43:43.214Z,990.91
2018-07-02T01:44:43.368Z,990.90
2018-07-02T01:45:43.523Z,990.90
2018-07-02T01:46:43.673Z,990.96
2018-07-02T01:47:43.825Z,990.93
2018-07-02T01:48:43.979Z,990.96
2018-07-02T01:49:44.128Z,990.99
2018-07-02T01:50:44.280Z,991.02
2018-07-02T01:51:44.432Z,991.00
2018-07-02T01:52:44.581Z,991.02
2018-07-02T01:53:44.734Z,991.04
2018-07-02T01:54:44.885Z,991.03
2018-07-02T01:55:45.034Z,990.98
2018-07-02T01:56:45.184Z,990.99
2018-07-02T01:57:45.336Z,991.00
2018-07-02T01:58:45.488Z,990.95
2018-07-02T01:59:45.638Z,990.95
2018-07-02T02:00:45.788Z,990.92
2018-07-02T02:01:45.943Z,990.93
2018-07-02T02:02:46.089Z,990.92
2018-07-02T02:03:46.243Z,990.93
2018-07-02T02:04:46.394Z,990.96
2018-07-02T02:05:46.545Z,990.98
2018-07-02T02:06:46.696Z,990.98
2018-07-02T02:07:46.844Z,991.01
2018-07-02T02:08:46.997Z,991.01
2018-07-02T02:09:47.146Z,991.01
2018-07-02T02:10:47.300Z,991.02
2018-07-02T02:11:47.450Z,991.00
2018-07-02T02:12:47.601Z,991.01
2018-07-02T02:13:47.753Z,991.04
2018-07-02T02:14:47.899Z,991.03
2018-07-02T02:15:48.055Z,991.00
2018-07-02T02:16:48.205Z,991.04
2018-07-02T02:17:48.355Z,991.00
2018-07-02T02:18:48.507Z,991.02
2018-07-02T02:19:48.658Z,990.97
2018-07-02T02:20:48.808Z,990.93
2018-07-02T02:21:48.961Z,990.97
2018-07-02T02:22:49.160Z,990.95
2018-07-02T02:23:49.266Z,990.97
2018-07-02T02:24:49.416Z,990.99
2018-07-02T02:25:49.569Z,990.96
2018-07-02T02:26:49.719Z,990.96
2018-07-02T02:27:49.868Z,990.97
2018-07-02T02:28:50.024Z,990.98
2018-07-02T02:29:50.169Z,991.01
2018-07-02T02:30:50.321Z,991.02
2018-07-02T02:31:50.475Z,991.03
2018-07-02T02:32:50.624Z,990.98
2018-07-02T02:33:50.773Z,991.01
2018-07-02T02:34:50.925Z,991.01
2018-07-02T02:35:51.075Z,990.98
2018-07-02T02:36:51.225Z,991.01
2018-07-02T02:37:51.376Z,990.96
2018-07-02T02:38:51.526Z,990.99
2018-07-02T02:39:51.680Z,990.99
2018-07-02T02:40:51.829Z,990.96
2018-07-02T02:41:51.980Z,991.00
2018-07-02T02:42:52.132Z,991.03
2018-07-02T02:43:52.281Z,991.01
2018-07-02T02:44:52.432Z,991.02
2018-07-02T02:45:52.585Z,991.02
2018-07-02T02:46:52.745Z,991.01
2018-07-02T02:47:52.897Z,991.02
2018-07-02T02:48:53.048Z,991.02
2018-07-02T02:49:53.195Z,991.02
2018-07-02T02:50:53.347Z,991.02
2018-07-02T02:51:53.500Z,991.05
2018-07-02T02:52:53.648Z,991.01
2018-07-02T02:53:53.800Z,991.00
2018-07-02T02:54:53.951Z,991.02
2018-07-02T02:55:54.102Z,991.06
2018-07-02T02:56:54.252Z,991.05
2018-07-02T02:57:54.402Z,991.08
2018-07-02T02:58:54.554Z,991.11
2018-07-02T02:59:54.705Z,991.10
2018-07-02T03:00:54.853Z,991.12
2018-07-02T03:01:55.006Z,991.17
2018-07-02T03:02:55.159Z,991.16
2018-07-02T03:03:55.310Z,991.15
2018-07-02T03:04:55.459Z,991.15
2018-07-02T03:05:55.607Z,991.15
2018-07-02T03:06:55.759Z,991.18
2018-07-02T03:07:55.915Z,991.20
2018-07-02T03:08:56.063Z,991.17
2018-07-02T03:09:56.216Z,991.21
2018-07-02T03:10:56.366Z,991.21
2018-07-02T03:11:56.531Z,991.23
2018-07-02T03:12:56.675Z,991.26
2018-07-02T03:13:56.817Z,991.25
2018-07-02T03:14:56.971Z,991.25
2018-07-02T03:15:57.122Z,991.22
2018-07-02T03:16:57.272Z,991.23
2018-07-02T03:17:57.422Z,991.25
2018-07-02T03:18:57.576Z,991.22
2018-07-02T03:19:57.727Z,991.24
2018-07-02T03:20:57.877Z,991.25
2018-07-02T03:21:58.026Z,991.24
2018-07-02T03:22:58.183Z,991.29
2018-07-02T03:23:58.331Z,991.28
2018-07-02T03:24:58.482Z,991.29
2018-07-02T03:25:58.634Z,991.28
2018-07-02T03:26:58.784Z,991.25
2018-07-02T03:27:58.937Z,991.26
2018-07-02T03:28:59.088Z,991.24
2018-07-02T03:29:59.238Z,991.23
2018-07-02T03:30:59.388Z,991.21
2018-07-02T03:31:59.539Z,991.17
2018-07-02T03:32:59.689Z,991.22
2018-07-02T03:33:59.840Z,991.21
2018-07-02T03:34:59.989Z,991.15
2018-07-02T03:36:00.142Z,991.15
2018-07-02T03:37:00.295Z,991.16
2018-07-02T03:38:00.442Z,991.14
2018-07-02T03:39:00.593Z,991.15
2018-07-02T03:40:00.746Z,991.16
2018-07-02T03:41:00.894Z,991.15
2018-07-02T03:42:01.048Z,991.15
2018-07-02T03:43:01.196Z,991.18
2018-07-02T03:44:01.349Z,991.11
2018-07-02T03:45:01.499Z,991.14
2018-07-02T03:46:01.649Z,991.13
2018-07-02T03:47:01.797Z,991.16
2018-07-02T03:48:01.948Z,991.10
2018-07-02T03:49:02.101Z,991.09
2018-07-02T03:50:02.248Z,991.08
2018-07-02T03:51:02.399Z,991.09
2018-07-02T03:52:02.550Z,991.05
2018-07-02T03:53:02.701Z,991.08
2018-07-02T03:54:02.852Z,991.03
2018-07-02T03:55:03.002Z,991.06
2018-07-02T03:56:03.153Z,991.09
2018-07-02T03:57:03.304Z,991.06
2018-07-02T03:58:03.453Z,991.05
2018-07-02T03:59:03.604Z,991.06
2018-07-02T04:00:03.758Z,991.12
2018-07-02T04:01:03.906Z,991.13
2018-07-02T04:02:04.056Z,991.18
2018-07-02T04:03:04.205Z,991.15
2018-07-02T04:04:04.357Z,991.21
2018-07-02T04:05:04.508Z,991.20
2018-07-02T04:06:04.660Z,991.20
2018-07-02T04:07:04.812Z,991.21
2018-07-02T04:08:04.963Z,991.20
2018-07-02T04:09:05.111Z,991.20
2018-07-02T04:10:05.263Z,991.19
2018-07-02T04:11:05.414Z,991.24
2018-07-02T04:12:05.609Z,991.23
2018-07-02T04:13:05.779Z,991.23
2018-07-02T04:14:05.867Z,991.17
2018-07-02T04:15:06.026Z,991.15
2018-07-02T04:16:06.167Z,991.13
2018-07-02T04:17:06.317Z,991.14
2018-07-02T04:18:06.469Z,991.14
2018-07-02T04:19:06.622Z,991.14
2018-07-02T04:20:06.772Z,991.15
2018-07-02T04:21:06.922Z,991.12
2018-07-02T04:22:07.077Z,991.17
2018-07-02T04:23:07.219Z,991.16
2018-07-02T04:24:07.385Z,991.19
2018-07-02T04:25:07.535Z,991.20
2018-07-02T04:26:07.690Z,991.23
2018-07-02T04:27:07.838Z,991.23
2018-07-02T04:28:07.992Z,991.23
2018-07-02T04:29:08.142Z,991.25
2018-07-02T04:30:08.294Z,991.23
2018-07-02T04:31:08.447Z,991.26
2018-07-02T04:32:08.595Z,991.23
2018-07-02T04:33:08.752Z,991.22
2018-07-02T04:34:08.913Z,991.20
2018-07-02T04:35:09.052Z,991.25
2018-07-02T04:36:09.204Z,991.21
2018-07-02T04:37:09.355Z,991.21
2018-07-02T04:38:09.514Z,991.27
2018-07-02T04:39:09.653Z,991.28
2018-07-02T04:40:09.802Z,991.26
2018-07-02T04:41:09.959Z,991.28
2018-07-02T04:42:10.109Z,991.29
2018-07-02T04:43:10.259Z,991.27
2018-07-02T04:44:10.407Z,991.28
2018-07-02T04:45:10.568Z,991.28
2018-07-02T04:46:10.714Z,991.25
2018-07-02T04:47:10.897Z,991.27
2018-07-02T04:48:11.012Z,991.26
2018-07-02T04:49:11.161Z,991.25
2018-07-02T04:50:11.317Z,991.24
2018-07-02T04:51:11.468Z,991.27
2018-07-02T04:52:11.618Z,991.26
2018-07-02T04:53:11.772Z,991.23
2018-07-02T04:54:11.921Z,991.23
2018-07-02T04:55:12.075Z,991.27
2018-07-02T04:56:12.227Z,991.29
2018-07-02T04:57:12.376Z,991.32
2018-07-02T04:58:12.545Z,991.35
2018-07-02T04:59:12.686Z,991.36
2018-07-02T05:00:12.844Z,991.38
2018-07-02T05:01:12.993Z,991.38
2018-07-02T05:02:13.144Z,991.40
2018-07-02T05:03:13.295Z,991.40
2018-07-02T05:04:13.453Z,991.42
2018-07-02T05:05:13.597Z,991.42
2018-07-02T05:06:13.750Z,991.40
2018-07-02T05:07:13.902Z,991.40
2018-07-02T05:08:14.053Z,991.46
2018-07-02T05:09:14.210Z,991.46
2018-07-02T05:10:14.357Z,991.45
2018-07-02T05:11:14.506Z,991.42
2018-07-02T05:12:14.654Z,991.43
2018-07-02T05:13:14.807Z,991.44
2018-07-02T05:14:14.959Z,991.47
2018-07-02T05:15:15.110Z,991.48
2018-07-02T05:16:15.274Z,991.48
2018-07-02T05:17:15.416Z,991.51
2018-07-02T05:18:15.567Z,991.48
2018-07-02T05:19:15.879Z,991.43
2018-07-02T05:20:15.873Z,991.44
2018-07-02T05:21:16.023Z,991.46
2018-07-02T05:22:16.178Z,991.49
2018-07-02T05:23:16.327Z,991.51
2018-07-02T05:24:16.482Z,991.54
2018-07-02T05:25:16.639Z,991.52
2018-07-02T05:26:16.788Z,991.52
2018-07-02T05:27:16.937Z,991.48
2018-07-02T05:28:17.090Z,991.49
2018-07-02T05:29:17.243Z,991.57
2018-07-02T05:30:17.395Z,991.52
2018-07-02T05:31:17.592Z,991.51
2018-07-02T05:32:17.700Z,991.51
2018-07-02T05:33:17.851Z,991.50
2018-07-02T05:34:18.001Z,991.51
2018-07-02T05:35:18.153Z,991.51
2018-07-02T05:36:18.306Z,991.54
2018-07-02T05:37:18.457Z,991.53
2018-07-02T05:38:18.611Z,991.54
2018-07-02T05:39:18.766Z,991.49
2018-07-02T05:40:18.917Z,991.50
2018-07-02T05:41:19.073Z,991.50
2018-07-02T05:42:19.222Z,991.48
2018-07-02T05:43:19.378Z,991.45
2018-07-02T05:44:19.532Z,991.47
2018-07-02T05:45:19.684Z,991.46
2018-07-02T05:46:19.837Z,991.46
2018-07-02T05:47:19.989Z,991.45
2018-07-02T05:48:20.142Z,991.50
2018-07-02T05:49:20.296Z,991.51
2018-07-02T05:50:20.449Z,991.53
2018-07-02T05:51:20.602Z,991.55
2018-07-02T05:52:20.754Z,991.50
2018-07-02T05:53:20.911Z,991.52
2018-07-02T05:54:21.062Z,991.52
2018-07-02T05:55:21.213Z,991.51
2018-07-02T05:56:21.366Z,991.54
2018-07-02T05:57:21.520Z,991.54
2018-07-02T05:58:21.675Z,991.55
2018-07-02T05:59:21.827Z,991.57
2018-07-02T06:00:22.094Z,991.54
2018-07-02T06:01:22.136Z,991.52
2018-07-02T06:02:22.288Z,991.55
2018-07-02T06:03:22.438Z,991.52
2018-07-02T06:04:22.596Z,991.56
2018-07-02T06:05:22.747Z,991.59
2018-07-02T06:06:22.899Z,991.54
2018-07-02T06:07:23.053Z,991.55
2018-07-02T06:08:23.204Z,991.52
2018-07-02T06:09:23.359Z,991.53
2018-07-02T06:10:23.523Z,991.53
2018-07-02T06:11:23.861Z,991.51
2018-07-02T06:12:23.815Z,991.46
2018-07-02T06:13:23.976Z,991.46
2018-07-02T06:14:24.122Z,991.44
2018-07-02T06:15:24.274Z,991.46
2018-07-02T06:16:24.449Z,991.44
2018-07-02T06:17:24.583Z,991.40
2018-07-02T06:18:24.737Z,991.39
2018-07-02T06:19:24.892Z,991.42
2018-07-02T06:20:25.042Z,991.41
2018-07-02T06:21:25.197Z,991.44
2018-07-02T06:22:25.349Z,991.48
2018-07-02T06:23:25.502Z,991.47
2018-07-02T06:24:25.655Z,991.50
2018-07-02T06:25:25.811Z,991.49
2018-07-02T06:26:25.965Z,991.49
2018-07-02T06:27:26.115Z,991.48
2018-07-02T06:28:26.272Z,991.48
2018-07-02T06:29:26.424Z,991.49
2018-07-02T06:30:26.585Z,991.47
2018-07-02T06:31:26.730Z,991.46
2018-07-02T06:32:26.883Z,991.45
2018-07-02T06:33:27.041Z,991.44
2018-07-02T06:34:27.190Z,991.45
2018-07-02T06:35:27.347Z,991.46
2018-07-02T06:36:27.498Z,991.43
2018-07-02T06:37:27.652Z,991.41
2018-07-02T06:38:27.806Z,991.38
2018-07-02T06:39:27.961Z,991.39
2018-07-02T06:40:28.116Z,991.41
2018-07-02T06:41:28.269Z,991.43
2018-07-02T06:42:28.422Z,991.43
2018-07-02T06:43:28.578Z,991.46
2018-07-02T06:44:28.733Z,991.43
2018-07-02T06:45:28.885Z,991.39
2018-07-02T06:46:29.040Z,991.46
2018-07-02T06:47:29.194Z,991.46
2018-07-02T06:48:29.388Z,991.41
2018-07-02T06:49:29.500Z,991.42
2018-07-02T06:50:29.655Z,991.45
2018-07-02T06:51:29.810Z,991.43
2018-07-02T06:52:29.964Z,991.42
2018-07-02T06:53:30.119Z,991.43
2018-07-02T06:54:30.273Z,991.42
2018-07-02T06:55:30.429Z,991.39
2018-07-02T06:56:30.583Z,991.40
2018-07-02T06:57:30.739Z,991.40
2018-07-02T06:58:30.892Z,991.41
2018-07-02T06:59:31.046Z,991.38
2018-07-02T07:00:31.200Z,991.36
2018-07-02T07:01:31.358Z,991.39
2018-07-02T07:02:31.512Z,991.41
2018-07-02T07:03:31.668Z,991.42
2018-07-02T07:04:31.824Z,991.39
2018-07-02T07:05:31.978Z,991.37
2018-07-02T07:06:32.131Z,991.39
2018-07-02T07:07:32.287Z,991.36
2018-07-02T07:08:32.457Z,991.39
2018-07-02T07:09:32.598Z,991.40
2018-07-02T07:10:32.762Z,991.35
2018-07-02T07:11:32.908Z,991.35
2018-07-02T07:12:33.063Z,991.31
2018-07-02T07:13:33.226Z,991.29
2018-07-02T07:14:33.379Z,991.28
2018-07-02T07:15:33.551Z,991.30
2018-07-02T07:16:33.688Z,991.30
2018-07-02T07:17:33.852Z,991.28
2018-07-02T07:18:33.997Z,991.29
2018-07-02T07:19:34.156Z,991.24
2018-07-02T07:20:34.310Z,991.28
2018-07-02T07:21:34.462Z,991.27
2018-07-02T07:22:34.616Z,991.25
2018-07-02T07:23:34.770Z,991.25
2018-07-02T07:24:34.927Z,991.28
2018-07-02T07:25:35.085Z,991.25
2018-07-02T07:26:35.240Z,991.24
2018-07-02T07:27:35.431Z,991.25
2018-07-02T07:28:35.550Z,991.30
2018-07-02T07:29:35.707Z,991.26
2018-07-02T07:30:35.879Z,991.25
2018-07-02T07:31:36.035Z,991.24
2018-07-02T07:32:36.188Z,991.26
2018-07-02T07:33:36.342Z,991.26
2018-07-02T07:34:36.499Z,991.29
2018-07-02T07:35:36.658Z,991.26
2018-07-02T07:36:36.813Z,991.25
2018-07-02T07:37:36.969Z,991.26
2018-07-02T07:38:37.125Z,991.28
2018-07-02T07:39:37.285Z,991.24
2018-07-02T07:40:37.479Z,991.32
2018-07-02T07:41:37.608Z,991.29
2018-07-02T07:42:37.767Z,991.30
2018-07-02T07:43:37.920Z,991.35
2018-07-02T07:44:38.074Z,991.33
2018-07-02T07:45:38.231Z,991.36
2018-07-02T07:46:38.386Z,991.35
2018-07-02T07:47:38.546Z,991.31
2018-07-02T07:48:38.698Z,991.28
2018-07-02T07:49:38.858Z,991.26
2018-07-02T07:50:39.013Z,991.34
2018-07-02T07:51:39.170Z,991.29
2018-07-02T07:52:39.324Z,991.28
2018-07-02T07:53:39.480Z,991.33
2018-07-02T07:54:39.638Z,991.34
2018-07-02T07:55:39.793Z,991.28
2018-07-02T07:56:39.950Z,991.34
2018-07-02T07:57:40.107Z,991.34
2018-07-02T07:58:40.265Z,991.37
2018-07-02T07:59:40.423Z,991.38
2018-07-02T08:00:40.579Z,991.42
2018-07-02T08:01:40.735Z,991.36
2018-07-02T08:02:40.893Z,991.41
2018-07-02T08:03:41.073Z,991.40
2018-07-02T08:04:41.204Z,991.41
2018-07-02T08:05:41.365Z,991.41
2018-07-02T08:06:41.519Z,991.41
2018-07-02T08:07:41.675Z,991.47
2018-07-02T08:08:41.834Z,991.45
2018-07-02T08:09:41.992Z,991.39
2018-07-02T08:10:42.147Z,991.44
2018-07-02T08:11:42.304Z,991.45
2018-07-02T08:12:42.461Z,991.43
2018-07-02T08:13:42.617Z,991.43
2018-07-02T08:14:42.776Z,991.45
2018-07-02T08:15:42.931Z,991.49
2018-07-02T08:16:43.089Z,991.37
2018-07-02T08:17:43.246Z,991.39
2018-07-02T08:18:43.403Z,991.39
2018-07-02T08:19:43.559Z,991.37
2018-07-02T08:20:43.720Z,991.36
2018-07-02T08:21:43.879Z,991.36
2018-07-02T08:22:44.036Z,991.34
2018-07-02T08:23:44.191Z,991.33
2018-07-02T08:24:44.351Z,991.36
2018-07-02T08:25:44.512Z,991.34
2018-07-02T08:26:44.673Z,991.33
2018-07-02T08:27:44.831Z,991.31
2018-07-02T08:28:44.989Z,991.27
2018-07-02T08:29:45.149Z,991.27
2018-07-02T08:30:45.313Z,991.28
2018-07-02T08:31:45.464Z,991.32
2018-07-02T08:32:45.662Z,991.32
2018-07-02T08:33:45.779Z,991.29
2018-07-02T08:34:45.936Z,991.32
2018-07-02T08:35:46.094Z,991.35
2018-07-02T08:36:46.249Z,991.30
2018-07-02T08:37:46.409Z,991.34
2018-07-02T08:38:46.567Z,991.34
2018-07-02T08:39:46.723Z,991.29
2018-07-02T08:40:46.886Z,991.29
2018-07-02T08:41:47.046Z,991.24
2018-07-02T08:42:47.204Z,991.25
2018-07-02T08:43:47.361Z,991.19
2018-07-02T08:44:47.521Z,991.21
2018-07-02T08:45:47.680Z,991.19
2018-07-02T08:46:47.891Z,991.19
2018-07-02T08:47:47.997Z,991.18
2018-07-02T08:48:48.158Z,991.21
2018-07-02T08:49:48.311Z,991.20
2018-07-02T08:50:48.470Z,991.20
2018-07-02T08:51:48.630Z,991.23
2018-07-02T08:52:48.809Z,991.21
2018-07-02T08:53:48.945Z,991.22
2018-07-02T08:54:49.104Z,991.22
2018-07-02T08:55:49.263Z,991.21
2018-07-02T08:56:49.421Z,991.16
2018-07-02T08:57:49.580Z,991.18
2018-07-02T08:58:49.737Z,991.11
2018-07-02T08:59:49.893Z,991.12
2018-07-02T09:00:50.052Z,991.16
2018-07-02T09:01:50.210Z,991.11
2018-07-02T09:02:50.366Z,991.07
2018-07-02T09:03:50.524Z,991.04
2018-07-02T09:04:50.682Z,991.12
2018-07-02T09:05:50.844Z,991.09
2018-07-02T09:06:51.022Z,991.11
2018-07-02T09:07:51.160Z,991.13
2018-07-02T09:08:51.318Z,991.15
2018-07-02T09:09:51.476Z,991.12
2018-07-02T09:10:51.633Z,991.12
2018-07-02T09:11:51.798Z,991.13
2018-07-02T09:12:51.951Z,991.17
2018-07-02T09:13:52.111Z,991.15
2018-07-02T09:14:52.271Z,991.14
2018-07-02T09:15:52.430Z,991.15
2018-07-02T09:16:52.598Z,991.12
2018-07-02T09:17:52.747Z,991.12
2018-07-02T09:18:52.905Z,991.09
2018-07-02T09:19:53.063Z,991.11
2018-07-02T09:20:53.227Z,991.10
2018-07-02T09:21:53.384Z,991.06
2018-07-02T09:22:53.547Z,991.07
2018-07-02T09:23:53.743Z,991.09
2018-07-02T09:24:53.866Z,991.03
2018-07-02T09:25:54.026Z,991.03
2018-07-02T09:26:54.189Z,991.05
2018-07-02T09:27:54.345Z,991.06
2018-07-02T09:28:54.510Z,991.02
2018-07-02T09:29:54.689Z,991.02
2018-07-02T09:30:54.828Z,991.04
2018-07-02T09:31:54.987Z,991.03
2018-07-02T09:32:55.151Z,991.02
2018-07-02T09:33:55.307Z,991.04
2018-07-02T09:34:55.469Z,991.12
2018-07-02T09:35:55.627Z,991.04
2018-07-02T09:36:55.790Z,991.08
2018-07-02T09:37:55.947Z,991.01
2018-07-02T09:38:56.107Z,990.99
2018-07-02T09:39:56.264Z,991.02
2018-07-02T09:40:56.424Z,990.95
2018-07-02T09:41:56.583Z,990.96
2018-07-02T09:42:56.745Z,991.05
2018-07-02T09:43:56.901Z,990.96
2018-07-02T09:44:57.061Z,991.02
2018-07-02T09:45:57.221Z,991.03
2018-07-02T09:46:57.378Z,991.01
2018-07-02T09:47:57.536Z,991.06
2018-07-02T09:48:57.693Z,991.07
2018-07-02T09:49:57.853Z,991.08
2018-07-02T09:50:58.242Z,991.00
2018-07-02T09:51:58.399Z,991.00
2018-07-02T09:52:58.336Z,991.00
2018-07-02T09:53:58.496Z,991.04
2018-07-02T09:54:58.657Z,991.02
2018-07-02T09:55:58.818Z,990.99
2018-07-02T09:56:58.973Z,990.99
2018-07-02T09:57:59.131Z,990.94
2018-07-02T09:58:59.293Z,990.96
2018-07-02T09:59:59.451Z,990.99
2018-07-02T10:00:59.615Z,990.97
2018-07-02T10:01:59.771Z,991.00
2018-07-02T10:02:59.935Z,991.01
2018-07-02T10:04:00.102Z,990.99
2018-07-02T10:05:00.250Z,991.05
2018-07-02T10:06:00.411Z,991.09
2018-07-02T10:07:00.569Z,991.12
2018-07-02T10:08:00.729Z,991.09
2018-07-02T10:09:00.893Z,991.11
2018-07-02T10:10:01.049Z,991.10
2018-07-02T10:11:01.214Z,991.08
2018-07-02T10:12:01.368Z,991.07
2018-07-02T10:13:01.528Z,991.05
2018-07-02T10:14:01.685Z,991.06
2018-07-02T10:15:01.846Z,991.07
2018-07-02T10:16:02.006Z,991.02
2018-07-02T10:17:02.164Z,991.04
2018-07-02T10:18:02.322Z,991.09
2018-07-02T10:19:02.483Z,991.01
2018-07-02T10:20:02.646Z,990.97
2018-07-02T10:21:02.801Z,990.94
2018-07-02T10:22:02.964Z,991.05
2018-07-02T10:23:03.121Z,990.97
2018-07-02T10:24:03.279Z,990.92
2018-07-02T10:25:03.438Z,990.97
2018-07-02T10:26:03.603Z,991.00
2018-07-02T10:27:03.759Z,990.99
2018-07-02T10:28:03.922Z,991.01
2018-07-02T10:29:04.116Z,991.04
2018-07-02T10:30:04.240Z,991.00
2018-07-02T10:31:04.425Z,991.01
2018-07-02T10:32:04.559Z,991.01
2018-07-02T10:33:04.719Z,990.96
2018-07-02T10:34:04.881Z,990.95
2018-07-02T10:35:05.039Z,990.90
2018-07-02T10:36:05.200Z,990.86
2018-07-02T10:37:05.361Z,990.89
2018-07-02T10:38:05.521Z,990.85
2018-07-02T10:39:05.686Z,990.94
2018-07-02T10:40:05.839Z,990.92
2018-07-02T10:41:05.998Z,990.92
2018-07-02T10:42:06.163Z,990.93
2018-07-02T10:43:06.323Z,990.91
2018-07-02T10:44:06.482Z,990.92
2018-07-02T10:45:06.644Z,990.91
2018-07-02T10:46:06.806Z,990.92
2018-07-02T10:47:07.004Z,990.93
2018-07-02T10:48:07.123Z,990.84
2018-07-02T10:49:07.287Z,990.82
2018-07-02T10:50:07.445Z,990.84
2018-07-02T10:51:07.606Z,990.82
2018-07-02T10:52:07.770Z,990.82
2018-07-02T10:53:07.929Z,990.86
2018-07-02T10:54:08.086Z,990.80
2018-07-02T10:55:08.249Z,990.89
2018-07-02T10:56:08.410Z,990.88
2018-07-02T10:57:08.571Z,990.86
2018-07-02T10:58:08.732Z,990.85
2018-07-02T10:59:08.893Z,990.81
2018-07-02T11:00:09.054Z,990.74
2018-07-02T11:01:09.213Z,990.70
2018-07-02T11:02:09.375Z,990.77
2018-07-02T11:03:09.535Z,990.71
2018-07-02T11:04:09.696Z,990.73
2018-07-02T11:05:09.862Z,990.69
2018-07-02T11:06:10.020Z,990.74
2018-07-02T11:07:10.182Z,990.74
2018-07-02T11:08:10.340Z,990.76
2018-07-02T11:09:10.502Z,990.79
2018-07-02T11:10:10.663Z,990.87
2018-07-02T11:11:10.873Z,990.85
2018-07-02T11:12:10.983Z,990.84
2018-07-02T11:13:11.144Z,990.84
2018-07-02T11:14:11.305Z,990.84
2018-07-02T11:15:11.474Z,990.85
2018-07-02T11:16:11.625Z,990.85
2018-07-02T11:17:11.854Z,990.85
2018-07-02T11:18:11.952Z,990.79
2018-07-02T11:19:12.112Z,990.79
2018-07-02T11:20:12.271Z,990.78
2018-07-02T11:21:12.432Z,990.77
2018-07-02T11:22:12.591Z,990.72
2018-07-02T11:23:12.739Z,990.77
2018-07-02T11:24:12.905Z,990.76
2018-07-02T11:25:13.062Z,990.78
2018-07-02T11:26:13.227Z,990.80
2018-07-02T11:27:13.384Z,990.77
2018-07-02T11:28:13.546Z,990.74
2018-07-02T11:29:13.707Z,990.63
2018-07-02T11:30:13.876Z,990.66
2018-07-02T11:31:14.028Z,990.63
2018-07-02T11:32:14.190Z,990.57
2018-07-02T11:33:14.350Z,990.62
2018-07-02T11:34:14.510Z,990.58
2018-07-02T11:35:14.669Z,990.55
2018-07-02T11:36:14.832Z,990.60
2018-07-02T11:37:14.995Z,990.62
2018-07-02T11:38:15.155Z,990.62
2018-07-02T11:39:15.316Z,990.55
2018-07-02T11:40:15.490Z,990.55
2018-07-02T11:41:15.636Z,990.54
2018-07-02T11:42:15.796Z,990.54
2018-07-02T11:43:15.956Z,990.56
2018-07-02T11:44:16.125Z,990.55
2018-07-02T11:45:16.283Z,990.60
2018-07-02T11:46:16.443Z,990.57
2018-07-02T11:47:16.607Z,990.55
2018-07-02T11:48:16.767Z,990.57
2018-07-02T11:49:16.928Z,990.54
2018-07-02T11:50:17.090Z,990.59
2018-07-02T11:51:17.252Z,990.63
2018-07-02T11:52:17.410Z,990.58
2018-07-02T11:53:17.571Z,990.54
2018-07-02T11:54:17.734Z,990.51
2018-07-02T11:55:17.894Z,990.46
2018-07-02T11:56:18.054Z,990.49
2018-07-02T11:57:18.222Z,990.48
2018-07-02T11:58:18.377Z,990.51
2018-07-02T11:59:18.538Z,990.50
2018-07-02T12:00:18.699Z,990.51
2018-07-02T12:01:18.864Z,990.50
2018-07-02T12:02:19.025Z,990.53
2018-07-02T12:03:19.185Z,990.47
2018-07-02T12:04:19.402Z,990.48
2018-07-02T12:05:19.511Z,990.44
2018-07-02T12:06:19.672Z,990.40
2018-07-02T12:07:19.834Z,990.43
2018-07-02T12:08:19.993Z,990.40
2018-07-02T12:09:20.154Z,990.43
2018-07-02T12:10:20.314Z,990.38
2018-07-02T12:11:20.476Z,990.40
2018-07-02T12:12:20.637Z,990.42
2018-07-02T12:13:20.802Z,990.42
2018-07-02T12:14:20.965Z,990.46
2018-07-02T12:15:21.164Z,990.49
2018-07-02T12:16:21.295Z,990.51
2018-07-02T12:17:21.457Z,990.52
2018-07-02T12:18:21.619Z,990.48
2018-07-02T12:19:21.781Z,990.38
2018-07-02T12:20:21.939Z,990.42
2018-07-02T12:21:22.102Z,990.40
2018-07-02T12:22:22.268Z,990.41
2018-07-02T12:23:22.425Z,990.38
2018-07-02T12:24:22.586Z,990.44
2018-07-02T12:25:22.748Z,990.34
2018-07-02T12:26:22.910Z,990.36
2018-07-02T12:27:23.071Z,990.40
2018-07-02T12:28:23.232Z,990.34
2018-07-02T12:29:23.392Z,990.33
2018-07-02T12:30:23.559Z,990.34